Time;durP1;ratioP1;P1;durP2;ratioP2;P2;SDS_P1;SDS_P2;PMS_P1;PMS_P2;Temp;Humidity;BMP_temperature;BMP_pressure;BME280_temperature;BME280_humidity;BME280_pressure;Samples;Min_cycle;Max_cycle;Signal;HPM_P1;HPM_P2
2023/07/03 00:00:12;;;;;;;10.60;5.43;;;16.00;91.70;;;;;;4988403;28;20038;-50
2023/07/03 00:02:38;;;;;;;7.47;4.63;;;16.00;92.10;;;;;;4970722;28;20399;-49
2023/07/03 00:05:08;;;;;;;15.65;4.75;;;16.00;91.50;;;;;;4989005;28;20056;-48
2023/07/03 00:07:34;;;;;;;12.13;4.53;;;16.00;91.80;;;;;;4971121;28;20119;-48
2023/07/03 00:10:00;;;;;;;9.82;5.07;;;16.00;91.90;;;;;;4988218;28;20310;-49
2023/07/03 00:12:26;;;;;;;14.90;5.00;;;16.00;91.80;;;;;;5006823;28;20461;-48
2023/07/03 00:14:51;;;;;;;11.93;5.03;;;16.00;91.60;;;;;;5053618;28;20084;-49
2023/07/03 00:17:17;;;;;;;8.90;4.45;;;16.00;91.80;;;;;;5024125;28;20063;-50
2023/07/03 00:19:42;;;;;;;14.95;5.05;;;16.00;91.80;;;;;;5017732;28;20494;-50
2023/07/03 00:22:08;;;;;;;9.00;4.60;;;15.90;92.00;;;;;;4987717;28;20061;-50
2023/07/03 00:24:33;;;;;;;10.38;4.85;;;16.00;92.00;;;;;;4988370;28;20030;-48
2023/07/03 00:26:59;;;;;;;8.30;4.82;;;16.00;92.10;;;;;;4987020;28;20038;-48
2023/07/03 00:29:29;;;;;;;8.98;4.90;;;16.00;92.00;;;;;;5005771;28;20122;-48
2023/07/03 00:31:54;;;;;;;10.13;4.53;;;16.00;91.60;;;;;;5090583;28;20031;-47
2023/07/03 00:34:19;;;;;;;11.43;5.43;;;16.00;91.50;;;;;;5005245;28;20412;-48
2023/07/03 00:36:46;;;;;;;9.57;5.70;;;16.00;91.50;;;;;;5070327;28;20362;-51
2023/07/03 00:39:11;;;;;;;7.95;4.18;;;15.90;91.40;;;;;;5053072;28;20042;-51
2023/07/03 00:41:37;;;;;;;9.70;4.60;;;15.90;91.60;;;;;;4987683;28;20353;-50
2023/07/03 00:44:02;;;;;;;9.23;5.13;;;15.90;91.50;;;;;;4988160;28;20152;-49
2023/07/03 00:46:28;;;;;;;9.07;4.95;;;15.90;91.40;;;;;;4987951;28;20101;-50
2023/07/03 00:48:54;;;;;;;15.18;5.63;;;16.00;91.60;;;;;;4987351;28;20030;-50
2023/07/03 00:51:19;;;;;;;10.77;5.20;;;16.00;91.50;;;;;;4987672;28;20074;-49
2023/07/03 00:53:45;;;;;;;10.18;5.38;;;16.00;91.70;;;;;;4987436;28;20058;-48
2023/07/03 00:56:11;;;;;;;12.27;5.53;;;16.00;91.40;;;;;;4987990;28;20035;-48
2023/07/03 00:58:38;;;;;;;11.15;5.65;;;16.00;91.30;;;;;;4987128;28;20025;-48
2023/07/03 01:01:15;;;;;;;10.20;4.90;;;16.00;91.30;;;;;;4987457;28;20053;-48
2023/07/03 01:03:45;;;;;;;13.13;5.13;;;16.00;91.00;;;;;;4970211;28;20391;-47
2023/07/03 01:06:19;;;;;;;9.35;4.55;;;16.00;91.00;;;;;;5036306;28;20034;-47
2023/07/03 01:08:49;;;;;;;10.23;4.57;;;16.00;91.10;;;;;;5090015;28;20093;-49
2023/07/03 01:11:16;;;;;;;10.55;4.90;;;16.00;91.30;;;;;;5018717;28;20037;-47
2023/07/03 01:13:45;;;;;;;10.38;5.57;;;16.00;91.30;;;;;;4987349;28;20510;-47
2023/07/03 01:16:11;;;;;;;11.13;5.28;;;16.00;91.50;;;;;;4969877;28;20164;-49
2023/07/03 01:18:38;;;;;;;10.88;4.80;;;15.90;91.70;;;;;;4986663;28;20046;-50
2023/07/03 01:21:14;;;;;;;12.85;5.10;;;15.90;91.70;;;;;;4986658;28;20109;-50
2023/07/03 01:23:47;;;;;;;11.88;6.03;;;15.80;91.90;;;;;;4987108;28;20026;-50
2023/07/03 01:26:15;;;;;;;17.90;5.60;;;15.80;92.00;;;;;;4978713;28;20034;-48
2023/07/03 01:28:43;;;;;;;13.85;5.00;;;15.80;92.30;;;;;;5089004;28;20020;-51
2023/07/03 01:31:11;;;;;;;15.02;5.63;;;15.80;92.40;;;;;;5039651;28;20185;-48
2023/07/03 01:33:40;;;;;;;14.57;5.60;;;15.70;92.50;;;;;;4987053;28;20034;-48
2023/07/03 01:36:07;;;;;;;11.93;5.80;;;15.70;92.80;;;;;;4987104;28;20026;-47
2023/07/03 01:38:34;;;;;;;17.35;5.80;;;15.60;92.90;;;;;;4986886;28;20114;-50
2023/07/03 01:41:01;;;;;;;11.70;5.50;;;15.70;93.00;;;;;;4986687;28;20505;-49
2023/07/03 01:43:28;;;;;;;10.90;5.25;;;15.60;93.00;;;;;;4969142;28;20027;-49
2023/07/03 01:45:53;;;;;;;11.10;5.53;;;15.60;93.20;;;;;;4986837;28;20033;-49
2023/07/03 01:48:19;;;;;;;14.93;5.55;;;15.50;93.60;;;;;;4986133;28;20046;-50
2023/07/03 01:50:47;;;;;;;12.45;5.85;;;15.50;93.40;;;;;;4986898;28;20030;-48
2023/07/03 01:53:27;;;;;;;13.20;5.65;;;15.50;93.40;;;;;;4986478;28;20523;-48
2023/07/03 01:55:53;;;;;;;;;;;15.50;93.50;;;;;;4969767;28;20391;-48
2023/07/03 01:58:32;;;;;;;16.30;6.75;;;15.50;93.70;;;;;;5062335;28;19924;-47
2023/07/03 02:01:05;;;;;;;10.63;5.65;;;15.50;93.50;;;;;;5089143;28;20028;-51
2023/07/03 02:03:46;;;;;;;15.88;5.93;;;15.50;93.50;;;;;;5011476;28;20031;-48
2023/07/03 02:06:29;;;;;;;12.88;6.38;;;15.50;93.60;;;;;;4986793;28;20054;-47
2023/07/03 02:08:55;;;;;;;13.32;6.00;;;15.50;93.70;;;;;;4986759;28;20048;-49
2023/07/03 02:11:22;;;;;;;12.48;5.55;;;15.50;93.80;;;;;;4968855;28;20230;-48
2023/07/03 02:13:48;;;;;;;18.73;5.88;;;15.50;94.00;;;;;;4986223;28;20018;-48
2023/07/03 02:16:15;;;;;;;11.68;5.72;;;15.50;94.00;;;;;;4986634;28;20291;-48
2023/07/03 02:18:41;;;;;;;17.08;6.20;;;15.50;93.90;;;;;;5014859;28;20427;-48
2023/07/03 02:21:07;;;;;;;17.35;6.07;;;15.60;93.70;;;;;;5088488;28;20027;-49
2023/07/03 02:23:33;;;;;;;14.80;6.00;;;15.60;93.80;;;;;;5016338;28;20383;-47
2023/07/03 02:25:58;;;;;;;17.73;6.30;;;15.60;93.80;;;;;;4986013;28;20098;-48
2023/07/03 02:28:24;;;;;;;16.02;6.43;;;15.60;93.70;;;;;;4985846;28;20022;-47
2023/07/03 02:30:49;;;;;;;11.48;6.75;;;15.60;94.00;;;;;;4986983;28;20085;-47
2023/07/03 02:33:15;;;;;;;16.20;6.53;;;15.60;93.90;;;;;;4986257;28;20467;-47
2023/07/03 02:35:41;;;;;;;16.95;6.90;;;15.60;93.70;;;;;;4969122;28;20155;-48
2023/07/03 02:38:08;;;;;;;19.58;5.65;;;15.60;93.90;;;;;;4989940;28;20030;-48
2023/07/03 02:40:34;;;;;;;10.80;5.68;;;15.70;93.80;;;;;;5068130;28;20049;-47
2023/07/03 02:43:00;;;;;;;12.82;6.50;;;15.70;93.80;;;;;;4987995;28;20052;-50
2023/07/03 02:45:25;;;;;;;19.35;6.88;;;15.70;93.90;;;;;;4985395;28;20057;-50
2023/07/03 02:47:51;;;;;;;19.08;7.28;;;15.70;93.80;;;;;;4986088;28;20117;-47
2023/07/03 02:50:16;;;;;;;12.38;5.88;;;15.60;93.90;;;;;;4987089;28;20109;-47
2023/07/03 02:52:42;;;;;;;16.75;6.22;;;15.60;94.00;;;;;;4989545;28;20034;-48
2023/07/03 02:55:11;;;;;;;17.98;5.78;;;15.70;94.10;;;;;;4989618;28;20030;-50
2023/07/03 02:57:36;;;;;;;16.73;6.72;;;15.70;94.00;;;;;;4989052;28;20033;-49
2023/07/03 03:00:02;;;;;;;17.17;5.97;;;15.60;94.30;;;;;;4989597;28;20030;-49
2023/07/03 03:02:28;;;;;;;15.32;6.32;;;15.70;94.00;;;;;;4971720;28;20479;-49
2023/07/03 03:04:53;;;;;;;15.55;6.72;;;15.70;94.10;;;;;;5027534;28;20024;-48
2023/07/03 03:07:19;;;;;;;15.98;6.82;;;15.70;94.00;;;;;;5078079;28;20123;-48
2023/07/03 03:09:45;;;;;;;18.00;6.32;;;15.70;93.90;;;;;;5021013;28;20024;-50
2023/07/03 03:12:10;;;;;;;20.92;6.70;;;15.80;93.60;;;;;;5091895;28;20024;-50
2023/07/03 03:14:36;;;;;;;17.20;7.32;;;15.90;93.30;;;;;;5000719;28;20035;-48
2023/07/03 03:17:02;;;;;;;16.23;5.75;;;15.90;93.40;;;;;;4988868;28;20408;-49
2023/07/03 03:19:27;;;;;;;13.27;5.90;;;15.90;93.20;;;;;;4988878;28;20311;-50
2023/07/03 03:21:53;;;;;;;13.30;6.22;;;15.90;93.50;;;;;;4972138;28;20476;-49
2023/07/03 03:24:20;;;;;;;14.70;5.55;;;15.90;93.50;;;;;;4989135;28;20113;-46
2023/07/03 03:26:45;;;;;;;20.55;6.50;;;16.00;93.30;;;;;;4988419;28;20026;-47
2023/07/03 03:29:11;;;;;;;24.42;6.57;;;16.00;93.30;;;;;;5038757;28;20042;-47
2023/07/03 03:31:36;;;;;;;15.07;6.28;;;16.00;93.40;;;;;;5091803;28;20024;-50
2023/07/03 03:34:02;;;;;;;18.70;6.57;;;16.00;93.60;;;;;;5060127;28;20062;-49
2023/07/03 03:36:28;;;;;;;19.35;5.80;;;16.00;93.60;;;;;;4988316;28;20031;-47
2023/07/03 03:38:54;;;;;;;15.13;6.50;;;16.00;93.80;;;;;;4988777;28;20072;-49
2023/07/03 03:41:19;;;;;;;12.98;6.25;;;16.00;93.70;;;;;;5002638;28;20551;-49
2023/07/03 03:43:48;;;;;;;18.13;6.65;;;16.00;93.80;;;;;;5089928;28;20023;-49
2023/07/03 03:46:13;;;;;;;16.60;6.18;;;16.00;93.90;;;;;;4986991;28;20018;-47
2023/07/03 03:48:39;;;;;;;20.80;7.38;;;16.00;93.70;;;;;;5055131;28;20031;-50
2023/07/03 03:51:04;;;;;;;19.20;6.57;;;16.00;93.80;;;;;;5005423;28;20029;-49
2023/07/03 03:53:31;;;;;;;14.57;6.47;;;16.00;93.80;;;;;;4995916;28;20113;-47
2023/07/03 03:55:57;;;;;;;22.15;6.95;;;16.00;94.00;;;;;;5001029;28;20456;-48
2023/07/03 03:58:22;;;;;;;20.17;7.03;;;16.00;94.30;;;;;;5072518;28;20106;-48
2023/07/03 04:00:50;;;;;;;19.95;7.03;;;16.00;94.10;;;;;;4986668;28;20025;-50
2023/07/03 04:03:16;;;;;;;18.40;7.13;;;16.00;94.70;;;;;;4977678;28;20030;-47
2023/07/03 04:05:42;;;;;;;21.45;7.00;;;16.00;94.20;;;;;;5047193;28;20047;-50
2023/07/03 04:08:09;;;;;;;15.93;6.25;;;16.00;94.30;;;;;;4988528;28;20037;-50
2023/07/03 04:10:35;;;;;;;19.10;7.75;;;16.00;94.30;;;;;;4988441;28;20101;-50
2023/07/03 04:13:00;;;;;;;18.05;7.07;;;16.00;94.30;;;;;;4988396;28;20110;-49
2023/07/03 04:15:26;;;;;;;17.17;6.55;;;16.10;94.50;;;;;;5000144;28;20142;-50
2023/07/03 04:17:51;;;;;;;20.13;6.40;;;16.10;94.60;;;;;;4982090;28;20026;-49
2023/07/03 04:20:17;;;;;;;19.75;6.57;;;16.10;94.50;;;;;;4985961;28;20026;-48
2023/07/03 04:22:44;;;;;;;16.38;6.18;;;16.10;94.70;;;;;;5005064;28;20029;-50
2023/07/03 04:25:09;;;;;;;17.27;6.53;;;16.10;94.80;;;;;;4980662;28;20487;-50
2023/07/03 04:27:37;;;;;;;18.60;6.50;;;16.10;95.00;;;;;;4976692;28;20038;-48
2023/07/03 04:30:06;;;;;;;15.82;5.97;;;16.20;94.90;;;;;;4989549;28;20038;-51
2023/07/03 04:32:32;;;;;;;19.98;6.85;;;16.20;94.90;;;;;;5072367;28;20020;-50
2023/07/03 04:35:00;;;;;;;22.98;6.78;;;16.20;94.90;;;;;;5028847;28;20092;-48
2023/07/03 04:37:26;;;;;;;15.52;6.82;;;16.20;94.90;;;;;;5003215;28;20395;-49
2023/07/03 04:39:53;;;;;;;20.27;6.63;;;16.20;95.10;;;;;;4987554;28;20041;-50
2023/07/03 04:42:20;;;;;;;14.50;6.10;;;16.20;95.10;;;;;;5067996;28;20072;-49
2023/07/03 04:44:48;;;;;;;16.85;7.53;;;16.30;95.60;;;;;;5084126;28;20047;-48
2023/07/03 04:47:15;;;;;;;16.05;6.30;;;16.20;95.20;;;;;;5081512;28;20028;-50
2023/07/03 04:49:41;;;;;;;14.90;6.50;;;16.20;95.40;;;;;;4990178;28;20037;-48
2023/07/03 04:52:07;;;;;;;18.30;6.70;;;16.30;95.40;;;;;;5034054;28;20036;-49
2023/07/03 04:54:32;;;;;;;21.52;7.32;;;16.30;95.50;;;;;;5089976;28;20032;-49
2023/07/03 04:56:58;;;;;;;16.58;6.95;;;16.30;95.20;;;;;;5032765;28;20046;-47
2023/07/03 04:59:23;;;;;;;18.23;6.47;;;16.30;95.50;;;;;;4984808;28;20034;-48
2023/07/03 05:01:49;;;;;;;16.75;6.15;;;16.40;95.40;;;;;;4987389;28;20022;-47
2023/07/03 05:04:15;;;;;;;18.25;8.32;;;16.40;95.60;;;;;;4987047;28;20031;-50
2023/07/03 05:06:40;;;;;;;22.23;6.78;;;16.40;95.30;;;;;;4987446;28;20440;-49
2023/07/03 05:09:08;;;;;;;18.90;6.75;;;16.40;95.80;;;;;;4986521;28;20057;-49
2023/07/03 05:11:33;;;;;;;22.15;7.55;;;16.40;95.60;;;;;;4983190;28;20084;-46
2023/07/03 05:13:59;;;;;;;22.70;6.75;;;16.50;95.80;;;;;;4984265;28;20038;-49
2023/07/03 05:16:25;;;;;;;17.20;6.45;;;16.50;95.40;;;;;;5025151;28;20111;-48
2023/07/03 05:18:51;;;;;;;19.15;7.63;;;16.50;95.50;;;;;;5009798;28;20113;-47
2023/07/03 05:21:16;;;;;;;16.98;6.47;;;16.70;95.60;;;;;;4996103;28;20038;-48
2023/07/03 05:23:42;;;;;;;21.02;7.05;;;16.70;95.50;;;;;;5009322;28;20136;-47
2023/07/03 05:26:07;;;;;;;19.90;6.75;;;16.80;95.50;;;;;;5089563;28;20024;-48
2023/07/03 05:28:33;;;;;;;20.50;7.57;;;16.80;95.60;;;;;;5064455;28;20495;-50
2023/07/03 05:30:59;;;;;;;20.90;7.88;;;16.80;95.60;;;;;;4986732;28;20034;-48
2023/07/03 05:33:26;;;;;;;13.45;6.13;;;16.80;94.90;;;;;;4986493;28;20091;-47
2023/07/03 05:35:52;;;;;;;15.02;6.47;;;16.80;95.20;;;;;;4986686;28;20030;-47
2023/07/03 05:38:19;;;;;;;17.58;6.68;;;16.90;95.30;;;;;;4986269;28;20061;-49
2023/07/03 05:40:44;;;;;;;16.90;7.40;;;16.90;95.40;;;;;;4986665;28;20038;-47
2023/07/03 05:43:11;;;;;;;22.80;7.32;;;16.80;95.20;;;;;;4986026;28;20080;-50
2023/07/03 05:45:36;;;;;;;20.65;7.50;;;16.70;95.30;;;;;;4975898;28;20026;-47
2023/07/03 05:48:02;;;;;;;21.25;6.65;;;16.60;95.30;;;;;;4986011;28;20037;-47
2023/07/03 05:50:28;;;;;;;15.52;6.53;;;16.50;95.30;;;;;;4986667;28;20091;-48
2023/07/03 05:52:54;;;;;;;19.42;6.95;;;16.50;95.40;;;;;;5039345;28;20392;-47
2023/07/03 05:55:19;;;;;;;18.42;6.93;;;16.60;95.50;;;;;;4998674;28;20103;-48
2023/07/03 05:57:45;;;;;;;19.17;6.15;;;16.70;95.40;;;;;;4986603;28;20468;-48
2023/07/03 06:00:14;;;;;;;17.25;6.57;;;16.70;95.60;;;;;;4986612;28;20030;-48
2023/07/03 06:02:44;;;;;;;17.95;7.45;;;16.70;94.90;;;;;;4986000;28;20381;-48
2023/07/03 06:05:11;;;;;;;20.55;6.57;;;16.80;95.10;;;;;;4985692;28;20035;-49
2023/07/03 06:07:37;;;;;;;24.83;6.70;;;16.90;94.90;;;;;;4966963;28;20080;-48
2023/07/03 06:10:04;;;;;;;15.20;6.22;;;16.90;94.70;;;;;;4984120;28;20561;-51
2023/07/03 06:12:30;;;;;;;19.10;6.93;;;17.00;95.40;;;;;;4981346;28;20049;-51
2023/07/03 06:15:00;;;;;;;17.65;6.22;;;17.10;95.10;;;;;;4985858;28;20022;-48
2023/07/03 06:17:27;;;;;;;17.58;6.50;;;17.20;94.50;;;;;;4986619;28;20030;-48
2023/07/03 06:19:53;;;;;;;15.02;6.78;;;17.20;94.80;;;;;;4986232;28;20030;-49
2023/07/03 06:22:20;;;;;;;19.58;6.35;;;17.20;94.40;;;;;;4975256;28;20023;-51
2023/07/03 06:24:45;;;;;;;26.70;7.28;;;17.20;94.60;;;;;;5000872;28;20543;-48
2023/07/03 06:27:12;;;;;;;16.73;6.47;;;17.30;94.70;;;;;;4985741;28;20102;-48
2023/07/03 06:29:38;;;;;;;17.42;5.95;;;17.30;94.70;;;;;;4971219;28;20030;-48
2023/07/03 06:32:04;;;;;;;14.25;6.22;;;17.40;94.30;;;;;;4984639;28;20035;-49
2023/07/03 06:34:30;;;;;;;19.75;6.30;;;17.40;94.20;;;;;;4986326;28;20123;-50
2023/07/03 06:36:56;;;;;;;16.65;5.43;;;17.60;94.30;;;;;;4985467;28;20062;-49
2023/07/03 06:39:22;;;;;;;15.57;6.68;;;17.70;94.00;;;;;;4985914;28;20034;-48
2023/07/03 06:41:47;;;;;;;20.98;6.78;;;17.70;94.00;;;;;;4962874;28;20105;-49
2023/07/03 06:44:16;;;;;;;18.45;6.07;;;17.70;94.20;;;;;;4986133;28;20110;-49
2023/07/03 06:46:42;;;;;;;21.55;6.72;;;17.70;93.80;;;;;;4983548;28;20030;-48
2023/07/03 06:49:08;;;;;;;17.73;5.40;;;17.80;93.90;;;;;;4985899;28;20015;-48
2023/07/03 06:51:34;;;;;;;14.95;5.25;;;17.90;94.00;;;;;;4994436;28;20038;-49
2023/07/03 06:53:59;;;;;;;20.17;6.40;;;18.10;93.60;;;;;;4986979;28;20456;-48
2023/07/03 06:56:27;;;;;;;14.55;5.32;;;18.10;93.40;;;;;;4967141;28;20034;-51
2023/07/03 06:58:52;;;;;;;19.25;5.30;;;18.10;93.00;;;;;;4949319;28;20121;-49
2023/07/03 07:01:21;;;;;;;17.30;5.55;;;18.00;93.20;;;;;;4981042;28;20121;-49
2023/07/03 07:03:46;;;;;;;17.63;5.78;;;18.00;93.90;;;;;;4991455;28;20057;-49
2023/07/03 07:06:22;;;;;;;18.52;5.32;;;18.00;93.60;;;;;;4984137;28;20050;-49
2023/07/03 07:08:48;;;;;;;15.85;5.38;;;17.90;93.60;;;;;;4965730;28;20223;-48
2023/07/03 07:11:18;;;;;;;21.33;6.03;;;18.00;93.40;;;;;;4978646;28;20035;-49
2023/07/03 07:13:47;;;;;;;18.55;5.88;;;18.10;93.60;;;;;;4988021;28;20277;-49
2023/07/03 07:16:20;;;;;;;20.52;6.22;;;18.10;93.80;;;;;;4986341;28;20446;-49
2023/07/03 07:18:48;;;;;;;22.13;6.30;;;18.20;93.50;;;;;;4985853;28;20062;-48
2023/07/03 07:21:14;;;;;;;17.83;5.72;;;18.20;93.30;;;;;;4987601;28;20078;-50
2023/07/03 07:23:40;;;;;;;14.18;5.20;;;18.30;93.50;;;;;;5024631;28;20054;-48
2023/07/03 07:26:05;;;;;;;16.67;5.45;;;18.60;93.20;;;;;;4985659;28;20065;-48
2023/07/03 07:28:31;;;;;;;18.13;5.90;;;18.90;92.90;;;;;;4985754;28;20063;-49
2023/07/03 07:30:57;;;;;;;19.88;5.82;;;19.10;92.60;;;;;;4985724;28;20106;-49
2023/07/03 07:33:22;;;;;;;19.50;5.20;;;19.20;92.40;;;;;;4985773;28;20034;-50
2023/07/03 07:35:49;;;;;;;12.18;4.40;;;19.10;92.10;;;;;;4985240;28;20475;-48
2023/07/03 07:38:14;;;;;;;17.02;6.13;;;19.20;92.30;;;;;;4988753;28;20136;-49
2023/07/03 07:40:40;;;;;;;16.88;5.28;;;19.10;92.00;;;;;;4988236;28;20542;-48
2023/07/03 07:43:06;;;;;;;23.02;6.20;;;19.20;92.20;;;;;;4974246;28;20266;-48
2023/07/03 07:45:32;;;;;;;18.48;4.93;;;19.20;91.60;;;;;;4986440;28;20023;-48
2023/07/03 07:47:58;;;;;;;22.83;5.88;;;19.20;91.70;;;;;;4987184;28;20418;-49
2023/07/03 07:50:24;;;;;;;22.83;5.72;;;19.40;91.50;;;;;;4988397;28;20019;-50
2023/07/03 07:52:50;;;;;;;22.60;5.63;;;19.30;91.60;;;;;;4989767;28;20160;-48
2023/07/03 07:55:17;;;;;;;19.00;5.53;;;19.40;91.50;;;;;;4997631;28;20037;-51
2023/07/03 07:57:42;;;;;;;17.02;5.57;;;19.40;91.20;;;;;;4978690;28;20303;-48
2023/07/03 08:00:09;;;;;;;19.05;5.57;;;19.70;91.30;;;;;;4988455;28;20026;-49
2023/07/03 08:02:34;;;;;;;17.77;5.20;;;19.50;91.10;;;;;;4988149;28;20024;-51
2023/07/03 08:05:00;;;;;;;15.65;4.90;;;19.60;90.70;;;;;;4988030;28;20109;-47
2023/07/03 08:07:26;;;;;;;11.68;5.28;;;19.60;90.70;;;;;;4979676;28;20109;-49
2023/07/03 08:09:52;;;;;;;16.67;5.25;;;20.10;90.70;;;;;;4979138;28;20097;-52
2023/07/03 08:12:17;;;;;;;15.55;5.75;;;20.20;90.40;;;;;;4991056;28;20358;-52
2023/07/03 08:14:43;;;;;;;13.75;4.72;;;20.20;89.20;;;;;;4989978;28;20624;-48
2023/07/03 08:17:08;;;;;;;12.65;5.18;;;20.50;89.60;;;;;;4987231;28;20027;-49
2023/07/03 08:19:34;;;;;;;19.73;5.43;;;20.80;89.80;;;;;;4990262;28;20065;-49
2023/07/03 08:21:59;;;;;;;16.33;5.72;;;21.80;87.00;;;;;;4998467;28;20065;-51
2023/07/03 08:24:28;;;;;;;16.48;4.53;;;22.70;82.90;;;;;;4997831;28;20050;-51
2023/07/03 08:26:54;;;;;;;18.98;4.75;;;23.50;82.90;;;;;;4988159;28;20032;-50
2023/07/03 08:29:20;;;;;;;11.27;4.28;;;23.30;79.20;;;;;;4980352;28;20098;-49
2023/07/03 08:31:45;;;;;;;14.93;5.03;;;23.00;81.80;;;;;;4985255;28;20479;-51
2023/07/03 08:34:11;;;;;;;27.40;5.68;;;23.00;81.00;;;;;;4988274;28;20585;-50
2023/07/03 08:36:39;;;;;;;16.92;6.50;;;23.10;80.80;;;;;;4990632;28;20556;-50
2023/07/03 08:39:05;;;;;;;15.73;5.05;;;22.60;79.70;;;;;;4989128;28;20041;-50
2023/07/03 08:41:44;;;;;;;12.13;5.25;;;22.30;83.20;;;;;;4976902;28;20031;-49
2023/07/03 08:44:11;;;;;;;18.38;5.55;;;22.00;83.70;;;;;;4978469;28;20038;-50
2023/07/03 08:46:37;;;;;;;18.38;5.30;;;21.50;83.50;;;;;;4984490;28;20056;-51
2023/07/03 08:49:04;;;;;;;18.58;5.38;;;21.40;84.00;;;;;;4986863;28;20062;-51
2023/07/03 08:51:32;;;;;;;18.20;5.90;;;20.80;84.80;;;;;;4996112;28;20407;-49
2023/07/03 08:54:06;;;;;;;15.27;4.95;;;20.50;85.90;;;;;;4997127;28;20088;-49
2023/07/03 08:56:33;;;;;;;14.70;5.00;;;20.00;86.70;;;;;;4987066;28;20103;-49
2023/07/03 08:59:00;;;;;;;16.40;4.68;;;20.00;88.60;;;;;;4981099;28;20015;-49
2023/07/03 09:01:41;;;;;;;21.75;5.70;;;20.00;89.40;;;;;;4987742;28;20166;-48
2023/07/03 09:04:31;;;;;;;19.48;5.72;;;20.00;88.50;;;;;;4970296;28;20448;-50
2023/07/03 09:07:07;;;;;;;15.13;5.13;;;20.20;88.40;;;;;;4987313;28;20468;-52
2023/07/03 09:09:48;;;;;;;16.45;4.63;;;20.30;88.70;;;;;;4987448;28;20031;-50
2023/07/03 09:12:29;;;;;;;17.08;5.70;;;20.10;88.30;;;;;;4987924;28;20030;-51
2023/07/03 09:15:01;;;;;;;16.92;5.40;;;20.00;88.00;;;;;;4987753;28;20027;-48
2023/07/03 09:17:27;;;;;;;16.45;5.20;;;20.00;88.70;;;;;;4986130;28;20506;-52
2023/07/03 09:19:56;;;;;;;17.60;6.15;;;20.20;90.10;;;;;;4990747;28;20448;-50
2023/07/03 09:22:32;;;;;;;13.10;4.65;;;20.30;89.00;;;;;;5051939;28;20434;-49
2023/07/03 09:25:01;;;;;;;11.85;5.13;;;20.30;89.60;;;;;;5004885;28;20038;-50
2023/07/03 09:27:27;;;;;;;22.90;5.80;;;20.20;89.10;;;;;;4987369;28;20113;-50
2023/07/03 09:29:57;;;;;;;21.05;4.97;;;19.90;89.80;;;;;;4987965;28;20034;-50
2023/07/03 09:32:28;;;;;;;20.83;6.43;;;19.40;90.30;;;;;;4974948;28;20502;-49
2023/07/03 09:35:10;;;;;;;21.52;5.80;;;19.00;91.30;;;;;;4987176;28;20052;-50
2023/07/03 09:37:41;;;;;;;21.33;5.72;;;18.80;92.10;;;;;;5051958;28;20039;-49
2023/07/03 09:40:12;;;;;;;19.17;5.30;;;18.70;92.70;;;;;;5035672;28;20034;-49
2023/07/03 09:42:39;;;;;;;14.65;5.20;;;18.90;92.50;;;;;;4989877;28;20747;-52
2023/07/03 09:45:16;;;;;;;21.45;6.13;;;19.00;92.80;;;;;;5010622;28;20522;-52
2023/07/03 09:47:48;;;;;;;19.90;5.53;;;19.20;92.20;;;;;;4982367;28;20148;-52
2023/07/03 09:50:15;;;;;;;26.60;5.85;;;19.30;91.60;;;;;;4986453;28;20038;-49
2023/07/03 09:52:44;;;;;;;14.07;5.18;;;19.60;91.80;;;;;;4985466;28;20100;-50
2023/07/03 09:55:10;;;;;;;13.63;5.22;;;20.10;90.90;;;;;;4980477;28;20097;-51
2023/07/03 09:57:38;;;;;;;13.98;5.28;;;20.30;90.10;;;;;;4981404;28;20034;-51
2023/07/03 10:00:15;;;;;;;20.80;5.50;;;20.50;89.60;;;;;;4976981;28;20031;-51
2023/07/03 10:02:42;;;;;;;18.45;5.32;;;20.90;87.70;;;;;;4987736;28;20104;-51
2023/07/03 10:05:17;;;;;;;19.25;4.82;;;21.30;87.60;;;;;;4987059;28;20031;-48
2023/07/03 10:07:45;;;;;;;15.60;5.03;;;21.60;85.00;;;;;;4983408;28;20416;-52
2023/07/03 10:10:17;;;;;;;19.65;5.80;;;22.40;85.70;;;;;;4985200;28;20042;-51
2023/07/03 10:12:54;;;;;;;12.32;3.92;;;23.80;84.80;;;;;;4966100;28;20022;-50
2023/07/03 10:15:26;;;;;;;15.82;5.25;;;24.90;81.10;;;;;;5010811;28;20028;-50
2023/07/03 10:18:00;;;;;;;15.95;5.03;;;26.30;74.60;;;;;;4999033;28;20105;-52
2023/07/03 10:20:36;;;;;;;11.35;4.30;;;27.30;72.20;;;;;;4976726;28;20046;-50
2023/07/03 10:23:04;;;;;;;11.57;4.25;;;27.50;71.00;;;;;;4983685;28;20105;-50
2023/07/03 10:25:47;;;;;;;25.63;5.13;;;26.60;72.10;;;;;;4984492;28;20033;-49
2023/07/03 10:28:19;;;;;;;13.93;4.40;;;26.30;72.30;;;;;;4983313;28;20045;-49
2023/07/03 10:30:49;;;;;;;13.98;4.80;;;25.70;73.00;;;;;;4985507;28;20030;-51
2023/07/03 10:33:19;;;;;;;10.85;4.03;;;26.00;71.80;;;;;;4985187;28;20027;-51
2023/07/03 10:35:47;;;;;;;9.25;4.22;;;25.40;72.20;;;;;;4968537;28;20034;-51
2023/07/03 10:38:25;;;;;;;10.27;3.95;;;25.30;70.90;;;;;;4985650;28;20319;-51
2023/07/03 10:41:07;;;;;;;12.02;4.22;;;26.10;65.80;;;;;;4981409;28;20045;-51
2023/07/03 10:43:44;;;;;;;15.38;5.22;;;26.30;67.90;;;;;;4985206;28;20015;-52
2023/07/03 10:46:19;;;;;;;10.55;4.07;;;27.00;65.70;;;;;;5012425;28;20024;-52
2023/07/03 10:48:46;;;;;;;11.15;4.45;;;27.20;65.00;;;;;;5089550;28;20020;-51
2023/07/03 10:51:29;;;;;;;14.38;4.55;;;28.10;65.60;;;;;;5088293;28;20031;-52
2023/07/03 10:54:06;;;;;;;11.73;4.00;;;28.00;62.40;;;;;;5024785;28;20037;-51
2023/07/03 10:56:43;;;;;;;13.13;4.68;;;26.80;64.00;;;;;;4985147;28;20027;-52
2023/07/03 10:59:22;;;;;;;10.45;4.10;;;26.60;63.30;;;;;;4971708;28;20027;-51
2023/07/03 11:02:12;;;;;;;12.17;4.20;;;26.70;64.40;;;;;;4975505;28;20023;-52
2023/07/03 11:05:07;;;;;;;16.88;4.82;;;25.70;65.40;;;;;;4985506;28;20015;-51
2023/07/03 11:07:47;;;;;;;10.90;3.80;;;24.20;69.00;;;;;;4982055;28;20034;-50
2023/07/03 11:10:17;;;;;;;14.52;4.30;;;23.50;69.00;;;;;;4983824;28;20030;-48
2023/07/03 11:12:51;;;;;;;16.30;4.93;;;22.70;71.50;;;;;;4968792;28;20487;-50
2023/07/03 11:15:32;;;;;;;15.55;4.90;;;22.30;74.00;;;;;;5010280;28;20527;-48
2023/07/03 11:18:29;;;;;;;16.80;5.03;;;21.80;75.20;;;;;;5000191;28;20019;-50
2023/07/03 11:21:06;;;;;;;15.98;5.05;;;21.50;76.80;;;;;;4969124;28;20031;-51
2023/07/03 11:24:05;;;;;;;20.30;6.00;;;21.00;77.10;;;;;;4969826;28;20038;-50
2023/07/03 11:26:36;;;;;;;13.23;4.07;;;20.60;77.40;;;;;;4984176;28;20062;-51
2023/07/03 11:29:03;;;;;;;17.75;5.40;;;20.20;79.10;;;;;;4984067;28;20391;-50
2023/07/03 11:31:30;;;;;;;12.85;4.45;;;19.80;80.20;;;;;;4978319;28;20030;-48
2023/07/03 11:33:56;;;;;;;16.88;4.47;;;19.60;80.60;;;;;;4980095;28;20356;-50
2023/07/03 11:36:41;;;;;;;12.52;5.30;;;19.50;81.30;;;;;;4986916;28;20018;-51
2023/07/03 11:39:28;;;;;;;14.18;4.07;;;19.30;82.40;;;;;;4979217;28;20027;-49
2023/07/03 11:42:01;;;;;;;13.70;3.90;;;19.30;81.60;;;;;;4985301;28;20387;-47
2023/07/03 11:44:37;;;;;;;19.80;4.80;;;19.10;82.80;;;;;;4986546;28;20062;-50
2023/07/03 11:47:07;;;;;;;20.48;4.70;;;19.10;82.00;;;;;;4987175;28;20038;-50
2023/07/03 11:49:36;;;;;;;13.65;4.10;;;18.90;82.60;;;;;;4988277;28;20030;-50
2023/07/03 11:52:04;;;;;;;18.70;4.88;;;18.90;83.20;;;;;;4985941;28;20037;-50
2023/07/03 11:54:34;;;;;;;22.55;4.97;;;18.90;83.40;;;;;;4987941;28;20030;-49
2023/07/03 11:57:06;;;;;;;18.58;4.47;;;19.20;83.80;;;;;;4993203;28;20502;-49
2023/07/03 11:59:38;;;;;;;15.55;5.10;;;19.30;83.30;;;;;;4985806;28;20030;-48
2023/07/03 12:02:16;;;;;;;16.58;4.43;;;19.50;83.30;;;;;;4989687;28;20027;-50
2023/07/03 12:04:50;;;;;;;10.63;3.95;;;19.80;82.20;;;;;;4986333;28;20068;-51
2023/07/03 12:07:18;;;;;;;18.90;4.43;;;20.50;83.10;;;;;;4983242;28;20101;-49
2023/07/03 12:09:45;;;;;;;14.32;4.03;;;20.90;81.30;;;;;;4982295;28;20093;-51
2023/07/03 12:12:21;;;;;;;16.55;4.90;;;21.50;80.30;;;;;;4981524;28;20101;-50
2023/07/03 12:14:57;;;;;;;19.48;4.65;;;22.50;77.80;;;;;;4989185;28;20622;-49
2023/07/03 12:17:32;;;;;;;16.92;4.53;;;23.30;76.60;;;;;;4996328;28;20479;-51
2023/07/03 12:20:10;;;;;;;17.75;3.67;;;23.50;73.00;;;;;;4979300;28;20030;-51
2023/07/03 12:22:44;;;;;;;18.92;4.63;;;23.00;73.60;;;;;;4978117;28;20019;-49
2023/07/03 12:25:20;;;;;;;10.68;4.13;;;22.70;75.40;;;;;;4982456;28;20034;-50
2023/07/03 12:27:47;;;;;;;10.68;3.83;;;23.00;74.70;;;;;;4987454;28;20475;-49
2023/07/03 12:30:27;;;;;;;19.83;5.07;;;23.30;76.50;;;;;;4988374;28;20479;-51
2023/07/03 12:32:54;;;;;;;12.47;3.80;;;23.20;72.60;;;;;;4988460;28;20030;-51
2023/07/03 12:35:24;;;;;;;14.48;3.78;;;23.00;75.50;;;;;;4987981;28;20117;-49
2023/07/03 12:37:53;;;;;;;11.52;4.03;;;22.90;73.90;;;;;;4987780;28;20045;-51
2023/07/03 12:40:20;;;;;;;10.55;3.72;;;23.10;71.70;;;;;;4987913;28;20117;-50
2023/07/03 12:42:47;;;;;;;12.93;4.10;;;22.90;71.80;;;;;;4970857;28;20105;-49
2023/07/03 12:45:21;;;;;;;11.15;3.92;;;22.90;71.10;;;;;;5020732;28;20020;-50